Sagamihara, Japan
Current Conditions -  °F | °C
As of 6:58 PM on Saturday 22 Nov 2014 (Local Time) from RJTY Reporting Station
Clear Clear  
Wind Chill: 52°   Ceiling: Unl
Heat Index: 52°   Visibility: 10mi
Dew Point: 44°   Wind: 3mph
Humidity: 72%   Direction: 290°WNW
Pressure: 30.22"   Gusts: NA
Location:  35.58°N, 139.38°E
Report Text: RJTY 220958Z AUTO 29003KT 10SM CLR 11/07 A3022 RMK AO2 SLP241 T01130065
Loading
Personal Weather Stations






























Interactive Weather Map New forecast layout! Learn more

10-Day Weather Forecast

Advertisements
Track Severe Weather on mobile